Time;durP1;ratioP1;P1;durP2;ratioP2;P2;SDS_P1;SDS_P2;PMS_P1;PMS_P2;Temp;Humidity;BMP_temperature;BMP_pressure;BME280_temperature;BME280_humidity;BME280_pressure;Samples;Min_cycle;Max_cycle;Signal;HPM_P1;HPM_P2
2023/12/08 05:05:03;;;;;;;0.40;0.40;;;3.10;99.90;;;;;;6059333;23;20270;-66
2023/12/08 05:07:29;;;;;;;0.40;0.40;;;2.90;99.90;;;;;;4957763;29;20569;-66
2023/12/08 05:09:54;;;;;;;0.40;0.40;;;2.90;99.90;;;;;;4941846;29;20263;-66
2023/12/08 05:12:20;;;;;;;0.30;0.30;;;2.80;99.90;;;;;;4959192;29;20180;-66
2023/12/08 05:14:45;;;;;;;0.30;0.30;;;2.80;99.90;;;;;;4958990;29;20582;-66
2023/12/08 05:17:11;;;;;;;0.40;0.40;;;2.70;99.90;;;;;;4939890;29;20189;-67
2023/12/08 05:19:37;;;;;;;0.43;0.43;;;2.70;99.90;;;;;;4922495;29;20260;-66
2023/12/08 05:22:03;;;;;;;0.30;0.30;;;2.60;99.90;;;;;;4940117;29;20176;-66
2023/12/08 05:24:28;;;;;;;0.30;0.30;;;2.60;99.90;;;;;;4939524;29;20177;-66
2023/12/08 05:26:54;;;;;;;0.40;0.40;;;2.60;99.90;;;;;;4922420;29;20216;-66
2023/12/08 05:29:19;;;;;;;0.30;0.30;;;2.50;99.90;;;;;;4939504;29;20248;-67
2023/12/08 05:31:45;;;;;;;0.40;0.40;;;2.50;99.90;;;;;;4939700;29;20170;-66
2023/12/08 05:34:11;;;;;;;0.30;0.30;;;2.50;99.90;;;;;;4939288;29;20201;-67
2023/12/08 05:36:36;;;;;;;0.30;0.30;;;2.50;99.90;;;;;;4938454;29;20607;-66
2023/12/08 05:39:03;;;;;;;0.57;0.50;;;2.50;99.90;;;;;;4939652;29;20174;-66
2023/12/08 05:41:28;;;;;;;0.63;0.63;;;2.50;99.90;;;;;;4939336;29;20174;-66
2023/12/08 05:43:54;;;;;;;1.33;0.77;;;2.40;99.90;;;;;;4939228;29;20695;-66
2023/12/08 05:46:20;;;;;;;1.33;1.33;;;2.40;99.90;;;;;;4939162;29;20600;-66
2023/12/08 05:48:47;;;;;;;0.50;0.50;;;2.40;99.90;;;;;;4939418;29;20248;-66
2023/12/08 05:51:12;;;;;;;0.47;0.47;;;2.30;99.90;;;;;;4939220;29;20588;-66
2023/12/08 05:53:38;;;;;;;0.40;0.40;;;2.30;99.90;;;;;;4939008;29;20249;-66
2023/12/08 05:56:04;;;;;;;0.37;0.37;;;2.30;99.90;;;;;;4938832;29;20253;-66
2023/12/08 05:58:29;;;;;;;0.40;0.40;;;2.30;99.90;;;;;;4939149;29;20216;-66
2023/12/08 06:00:56;;;;;;;0.40;0.40;;;2.20;99.90;;;;;;4939086;29;20991;-66
2023/12/08 06:03:21;;;;;;;0.30;0.30;;;2.20;99.90;;;;;;4938844;29;20252;-66
2023/12/08 06:05:47;;;;;;;0.30;0.30;;;2.20;99.90;;;;;;4938381;29;20296;-65
2023/12/08 06:08:13;;;;;;;0.43;0.43;;;2.20;99.90;;;;;;4948045;28;20305;-64
2023/12/08 06:10:38;;;;;;;2.47;1.20;;;2.20;99.90;;;;;;4958033;29;20180;-65
2023/12/08 06:13:04;;;;;;;0.40;0.40;;;2.30;99.90;;;;;;4958019;29;20413;-65
2023/12/08 06:15:30;;;;;;;0.37;0.37;;;2.30;99.90;;;;;;4957341;29;20279;-66
2023/12/08 06:17:55;;;;;;;0.40;0.40;;;2.30;99.90;;;;;;4957626;29;20177;-65
2023/12/08 06:20:21;;;;;;;0.40;0.40;;;2.30;99.90;;;;;;4957708;29;20223;-65
2023/12/08 06:22:46;;;;;;;0.30;0.30;;;2.30;99.90;;;;;;4940415;29;20176;-66
2023/12/08 06:25:12;;;;;;;0.30;0.30;;;2.30;99.90;;;;;;4957181;29;20264;-65
2023/12/08 06:27:37;;;;;;;0.40;0.40;;;2.30;99.90;;;;;;4957786;29;20176;-65
2023/12/08 06:30:04;;;;;;;0.40;0.40;;;2.30;99.90;;;;;;4957626;29;20260;-65
2023/12/08 06:32:29;;;;;;;0.45;0.45;;;2.30;99.90;;;;;;4940275;29;20508;-66
2023/12/08 06:34:55;;;;;;;0.30;0.30;;;2.30;99.90;;;;;;4957063;29;20169;-67
2023/12/08 06:37:21;;;;;;;0.30;0.30;;;2.30;99.90;;;;;;4957446;29;20176;-66
2023/12/08 06:39:47;;;;;;;0.37;0.37;;;2.30;99.90;;;;;;4957459;29;20168;-65
2023/12/08 06:42:12;;;;;;;0.40;0.40;;;2.30;99.90;;;;;;4957400;29;20184;-65
2023/12/08 06:44:38;;;;;;;0.30;0.30;;;2.40;99.90;;;;;;4939574;29;20181;-66
2023/12/08 06:47:04;;;;;;;0.40;0.40;;;2.30;99.90;;;;;;4956819;29;20206;-67
2023/12/08 06:49:30;;;;;;;0.40;0.40;;;2.40;99.90;;;;;;4957056;29;20408;-67
2023/12/08 06:51:56;;;;;;;0.50;0.50;;;2.40;99.90;;;;;;4956958;29;20674;-68
2023/12/08 06:54:21;;;;;;;0.40;0.40;;;2.40;99.90;;;;;;4939631;29;20177;-66
2023/12/08 06:56:47;;;;;;;0.30;0.30;;;2.40;99.90;;;;;;4956933;29;20259;-64
2023/12/08 06:59:13;;;;;;;0.40;0.40;;;2.40;99.90;;;;;;4957047;29;20237;-67
2023/12/08 07:01:38;;;;;;;0.30;0.30;;;2.50;99.90;;;;;;4957167;29;20252;-67
2023/12/08 07:04:04;;;;;;;0.40;0.40;;;2.50;99.90;;;;;;4956493;29;20184;-65
2023/12/08 07:06:30;;;;;;;0.40;0.40;;;2.50;99.90;;;;;;4956465;29;20291;-66
2023/12/08 07:08:56;;;;;;;0.40;0.40;;;2.50;99.90;;;;;;4950805;29;20181;-65
2023/12/08 07:11:22;;;;;;;0.30;0.30;;;2.50;99.90;;;;;;4920594;29;20169;-67
2023/12/08 07:13:48;;;;;;;0.40;0.40;;;2.50;99.90;;;;;;4937885;29;20240;-65
2023/12/08 07:16:14;;;;;;;0.30;0.30;;;2.50;99.90;;;;;;4937019;29;20618;-65
2023/12/08 07:18:40;;;;;;;0.40;0.40;;;2.50;99.90;;;;;;4937893;29;20173;-68
2023/12/08 07:21:06;;;;;;;0.30;0.30;;;2.50;99.90;;;;;;4937078;29;20208;-68
2023/12/08 07:23:31;;;;;;;0.30;0.30;;;2.50;99.90;;;;;;4937221;29;20419;-67
2023/12/08 07:25:57;;;;;;;0.30;0.30;;;2.50;99.90;;;;;;4919607;29;20472;-65
2023/12/08 07:28:22;;;;;;;0.30;0.30;;;2.60;99.90;;;;;;4937347;29;20174;-66
2023/12/08 07:30:48;;;;;;;0.40;0.40;;;2.60;99.90;;;;;;4937117;29;20201;-65
2023/12/08 07:33:13;;;;;;;0.30;0.30;;;2.60;99.90;;;;;;4937014;29;20173;-67
2023/12/08 07:35:39;;;;;;;0.40;0.40;;;2.60;99.90;;;;;;4936576;29;20220;-66
2023/12/08 07:38:05;;;;;;;0.30;0.30;;;2.60;99.90;;;;;;4919973;29;20178;-66
2023/12/08 07:40:30;;;;;;;0.80;0.80;;;2.70;99.90;;;;;;4936988;29;20633;-67
2023/12/08 07:42:56;;;;;;;0.40;0.40;;;2.70;99.90;;;;;;4936898;29;20174;-69
2023/12/08 07:45:22;;;;;;;0.30;0.30;;;2.70;99.90;;;;;;4936390;29;20201;-70
2023/12/08 07:47:47;;;;;;;0.30;0.30;;;2.80;99.90;;;;;;4920068;29;20256;-69
2023/12/08 07:50:14;;;;;;;0.60;0.60;;;2.80;99.90;;;;;;4936955;29;20184;-68
2023/12/08 07:52:41;;;;;;;0.38;0.38;;;2.90;99.90;;;;;;4937144;29;20367;-68
2023/12/08 07:55:08;;;;;;;0.30;0.30;;;3.00;99.90;;;;;;4936454;29;20609;-68
2023/12/08 07:57:34;;;;;;;0.40;0.40;;;3.00;99.90;;;;;;4936840;29;20189;-70
2023/12/08 07:59:59;;;;;;;0.40;0.40;;;3.10;99.90;;;;;;4919892;29;20182;-69
2023/12/08 08:02:25;;;;;;;0.33;0.33;;;3.10;99.90;;;;;;4936655;29;20170;-69
2023/12/08 08:04:51;;;;;;;0.30;0.30;;;3.20;99.90;;;;;;4931761;29;20573;-67
2023/12/08 08:07:16;;;;;;;0.30;0.30;;;3.30;99.90;;;;;;4917871;29;20576;-69
2023/12/08 08:09:43;;;;;;;0.30;0.30;;;3.30;99.90;;;;;;4917763;29;20231;-70
2023/12/08 08:12:09;;;;;;;0.40;0.40;;;3.40;99.90;;;;;;4917883;29;20253;-68
2023/12/08 08:14:34;;;;;;;0.40;0.40;;;3.50;99.90;;;;;;4917432;29;20640;-66
2023/12/08 08:17:01;;;;;;;0.30;0.30;;;3.60;99.90;;;;;;4916456;29;20440;-67
2023/12/08 08:19:27;;;;;;;0.32;0.32;;;3.50;99.90;;;;;;4917769;29;20205;-66
2023/12/08 08:21:53;;;;;;;0.30;0.30;;;3.60;99.90;;;;;;4917369;29;20176;-65
2023/12/08 08:24:18;;;;;;;0.67;0.67;;;3.70;99.90;;;;;;4916807;29;20410;-66
2023/12/08 08:26:44;;;;;;;0.30;0.30;;;3.70;99.90;;;;;;4917130;29;20207;-66
2023/12/08 08:29:10;;;;;;;0.30;0.30;;;3.70;99.90;;;;;;4917632;29;20178;-66
2023/12/08 08:31:35;;;;;;;0.30;0.30;;;3.80;99.90;;;;;;4917284;29;20172;-67
2023/12/08 08:34:03;;;;;;;0.60;0.60;;;3.80;99.90;;;;;;4916944;29;20245;-67
2023/12/08 08:36:29;;;;;;;0.30;0.30;;;3.80;99.90;;;;;;4917137;29;20439;-67
2023/12/08 08:38:54;;;;;;;0.43;0.43;;;3.90;99.90;;;;;;4917455;29;20243;-66
2023/12/08 08:41:21;;;;;;;0.30;0.30;;;4.00;99.90;;;;;;4917161;29;20542;-66
2023/12/08 08:43:48;;;;;;;0.30;0.30;;;4.00;99.90;;;;;;4917207;29;20229;-65
2023/12/08 08:46:13;;;;;;;0.30;0.30;;;4.10;99.90;;;;;;4916741;29;20552;-67
2023/12/08 08:48:39;;;;;;;0.30;0.30;;;4.20;99.90;;;;;;4917381;29;20187;-67
2023/12/08 08:51:05;;;;;;;0.40;0.40;;;4.30;99.90;;;;;;4917315;29;20174;-66
2023/12/08 08:53:30;;;;;;;0.40;0.40;;;4.30;99.90;;;;;;4917105;29;20545;-67
2023/12/08 08:55:56;;;;;;;0.40;0.40;;;4.40;99.90;;;;;;4916793;29;20674;-69
2023/12/08 08:58:22;;;;;;;0.30;0.30;;;4.50;99.90;;;;;;4917263;29;20268;-66
2023/12/08 09:00:47;;;;;;;0.30;0.30;;;4.60;99.90;;;;;;4917040;29;20584;-64
2023/12/08 09:03:13;;;;;;;0.40;0.40;;;4.60;99.90;;;;;;4916976;29;20188;-63
2023/12/08 09:05:41;;;;;;;0.30;0.30;;;4.70;99.90;;;;;;4916771;29;20269;-63
2023/12/08 09:08:08;;;;;;;0.40;0.40;;;4.80;99.90;;;;;;4917020;29;20226;-63
2023/12/08 09:10:34;;;;;;;0.30;0.30;;;4.80;99.90;;;;;;4917177;29;20199;-61
2023/12/08 09:13:00;;;;;;;0.35;0.35;;;4.90;99.90;;;;;;4916975;29;20203;-65
2023/12/08 09:15:25;;;;;;;0.40;0.40;;;4.80;99.90;;;;;;4916643;29;20229;-62
2023/12/08 09:17:51;;;;;;;0.30;0.30;;;4.80;99.90;;;;;;4917027;29;20200;-61
2023/12/08 09:20:17;;;;;;;0.40;0.40;;;4.80;99.90;;;;;;4917123;29;20182;-63
2023/12/08 09:22:44;;;;;;;0.60;0.60;;;4.80;99.90;;;;;;4917128;29;20238;-62
2023/12/08 09:25:09;;;;;;;0.38;0.38;;;4.80;99.90;;;;;;4916551;29;20246;-63
2023/12/08 09:27:35;;;;;;;0.30;0.30;;;4.80;99.90;;;;;;4917008;29;20204;-65
2023/12/08 09:30:01;;;;;;;0.30;0.30;;;4.80;99.90;;;;;;4916861;29;20572;-64
2023/12/08 09:32:28;;;;;;;0.40;0.40;;;4.80;99.90;;;;;;4916851;29;20261;-62
2023/12/08 09:34:53;;;;;;;0.30;0.30;;;4.80;99.90;;;;;;4916373;29;20436;-63
2023/12/08 09:37:19;;;;;;;0.77;0.77;;;4.80;99.90;;;;;;4916982;29;20636;-64
2023/12/08 09:39:45;;;;;;;0.40;0.40;;;4.80;99.90;;;;;;4899485;29;20184;-64
2023/12/08 09:42:29;;;;;;;2.30;1.47;;;4.80;99.90;;;;;;4916711;29;20182;-65
2023/12/08 09:44:55;;;;;;;0.75;0.75;;;4.90;99.90;;;;;;4919635;29;20646;-66
2023/12/08 09:47:22;;;;;;;0.70;0.70;;;4.80;99.90;;;;;;4920259;29;20314;-63
2023/12/08 09:49:49;;;;;;;0.30;0.30;;;4.80;99.90;;;;;;4920190;29;20182;-64
2023/12/08 09:52:15;;;;;;;0.30;0.30;;;4.80;99.90;;;;;;4920230;29;20164;-64
2023/12/08 09:54:42;;;;;;;0.40;0.40;;;4.80;99.90;;;;;;4919900;29;20169;-63
2023/12/08 09:57:13;;;;;;;0.40;0.40;;;4.80;99.90;;;;;;4920004;29;20433;-64
2023/12/08 09:59:39;;;;;;;0.38;0.38;;;4.80;99.90;;;;;;4920074;29;20186;-64
2023/12/08 10:02:07;;;;;;;0.30;0.30;;;4.90;99.90;;;;;;4918768;29;20187;-65
2023/12/08 10:04:33;;;;;;;0.32;0.32;;;4.90;99.90;;;;;;4919762;29;20418;-65
2023/12/08 10:07:01;;;;;;;0.30;0.30;;;4.90;99.90;;;;;;4919786;29;20223;-65
2023/12/08 10:09:29;;;;;;;0.30;0.30;;;5.00;99.90;;;;;;4919986;29;20188;-64
2023/12/08 10:11:55;;;;;;;0.30;0.30;;;5.10;99.90;;;;;;4919888;29;20184;-64
2023/12/08 10:14:21;;;;;;;0.33;0.33;;;5.10;99.90;;;;;;4919766;29;20177;-65
2023/12/08 10:16:47;;;;;;;0.30;0.30;;;5.20;99.90;;;;;;4919892;29;20200;-65
2023/12/08 10:19:13;;;;;;;1.95;1.52;;;5.20;99.90;;;;;;4919826;29;20178;-64
2023/12/08 10:21:38;;;;;;;0.30;0.30;;;5.30;99.90;;;;;;4919792;29;20232;-63
2023/12/08 10:24:04;;;;;;;0.30;0.30;;;5.30;99.90;;;;;;4919508;29;20181;-64
2023/12/08 10:26:33;;;;;;;0.30;0.30;;;5.40;99.90;;;;;;4919458;29;20696;-65
2023/12/08 10:29:00;;;;;;;0.30;0.30;;;5.50;99.90;;;;;;4919707;29;20178;-63
2023/12/08 10:31:27;;;;;;;0.30;0.30;;;5.50;99.90;;;;;;4919534;29;20180;-64
2023/12/08 10:33:54;;;;;;;0.40;0.40;;;5.50;99.90;;;;;;4919591;29;20170;-63
2023/12/08 10:36:20;;;;;;;0.30;0.30;;;5.60;99.90;;;;;;4919328;29;20205;-64
2023/12/08 10:38:49;;;;;;;0.40;0.40;;;5.70;99.90;;;;;;4919583;29;20237;-65
2023/12/08 10:41:14;;;;;;;0.40;0.40;;;5.80;99.90;;;;;;4919487;29;20238;-65
2023/12/08 10:43:40;;;;;;;0.30;0.30;;;5.80;99.90;;;;;;4919370;29;20581;-64
2023/12/08 10:46:07;;;;;;;0.30;0.30;;;5.90;99.90;;;;;;4936059;29;20203;-65
2023/12/08 10:48:34;;;;;;;0.30;0.30;;;6.00;99.90;;;;;;4938163;29;20275;-64
2023/12/08 10:51:00;;;;;;;0.30;0.30;;;6.00;99.90;;;;;;4937627;29;20587;-64
2023/12/08 10:53:26;;;;;;;0.40;0.40;;;6.00;99.90;;;;;;4938140;29;20691;-64
2023/12/08 10:56:07;;;;;;;0.40;0.40;;;6.00;99.90;;;;;;4935334;29;20292;-64
2023/12/08 10:58:34;;;;;;;0.40;0.40;;;6.10;99.90;;;;;;4938084;29;20424;-64
2023/12/08 11:01:03;;;;;;;0.30;0.30;;;6.10;99.90;;;;;;4938039;29;20177;-62
2023/12/08 11:03:35;;;;;;;0.30;0.30;;;6.10;99.90;;;;;;4938029;29;20208;-63
2023/12/08 11:06:08;;;;;;;0.30;0.30;;;6.20;99.90;;;;;;4937615;29;20575;-63
2023/12/08 11:08:35;;;;;;;0.30;0.30;;;6.10;99.90;;;;;;4938021;29;20674;-69
2023/12/08 11:11:04;;;;;;;0.30;0.30;;;6.10;99.90;;;;;;4937726;29;20233;-68
2023/12/08 11:13:34;;;;;;;0.40;0.40;;;6.20;99.90;;;;;;4937925;29;20187;-69
2023/12/08 11:16:27;;;;;;;0.30;0.30;;;6.20;99.90;;;;;;4937217;29;20244;-67
2023/12/08 11:18:55;;;;;;;0.40;0.40;;;6.20;99.90;;;;;;4937705;29;20166;-70
2023/12/08 11:21:22;;;;;;;0.30;0.30;;;6.20;99.90;;;;;;4937698;29;20177;-67
2023/12/08 11:23:48;;;;;;;0.30;0.30;;;6.20;99.90;;;;;;4937576;29;20177;-68
2023/12/08 11:26:42;;;;;;;0.32;0.32;;;6.30;99.90;;;;;;4937151;28;20205;-66
2023/12/08 11:29:43;;;;;;;0.38;0.38;;;6.30;99.90;;;;;;4937542;29;20222;-68
2023/12/08 11:32:39;;;;;;;0.30;0.30;;;6.40;99.90;;;;;;4936273;29;20573;-68
2023/12/08 11:35:12;;;;;;;0.40;0.40;;;6.50;99.90;;;;;;4935842;29;20524;-65
2023/12/08 11:37:39;;;;;;;0.30;0.30;;;6.50;99.90;;;;;;4937489;29;20668;-68
2023/12/08 11:40:11;;;;;;;0.30;0.30;;;6.50;99.90;;;;;;4937244;29;20233;-67
2023/12/08 11:42:42;;;;;;;0.30;0.30;;;6.50;99.90;;;;;;4937115;29;20571;-68
2023/12/08 11:45:09;;;;;;;0.40;0.40;;;6.50;99.90;;;;;;4936697;29;20608;-65
2023/12/08 11:47:36;;;;;;;0.40;0.40;;;6.50;99.90;;;;;;4936734;29;20683;-69
2023/12/08 11:50:05;;;;;;;0.30;0.30;;;6.50;99.90;;;;;;4920009;29;20177;-65
2023/12/08 11:52:33;;;;;;;0.40;0.40;;;6.50;99.90;;;;;;4936681;29;20506;-68
2023/12/08 11:54:58;;;;;;;0.32;0.32;;;6.50;99.90;;;;;;4936615;29;20188;-63
2023/12/08 11:57:24;;;;;;;0.40;0.40;;;6.50;99.90;;;;;;4937153;29;20207;-61
2023/12/08 11:59:50;;;;;;;0.40;0.40;;;6.60;99.90;;;;;;4936959;29;20188;-61
2023/12/08 12:02:16;;;;;;;0.60;0.60;;;6.70;99.90;;;;;;4936305;29;20185;-61
2023/12/08 12:04:42;;;;;;;0.30;0.30;;;6.70;99.90;;;;;;4936543;29;20180;-64
2023/12/08 12:07:10;;;;;;;0.30;0.30;;;6.80;99.90;;;;;;4935935;29;20613;-65
2023/12/08 12:09:39;;;;;;;0.30;0.30;;;6.70;99.90;;;;;;4936642;29;20170;-66
2023/12/08 12:12:12;;;;;;;0.30;0.30;;;6.80;99.90;;;;;;4936479;29;20186;-64
2023/12/08 12:14:43;;;;;;;0.45;0.45;;;6.80;99.90;;;;;;4935521;29;20176;-65
2023/12/08 12:17:10;;;;;;;0.35;0.35;;;6.80;99.90;;;;;;4936471;29;20197;-65
2023/12/08 12:19:36;;;;;;;0.30;0.30;;;6.80;99.90;;;;;;4934617;29;20216;-63
2023/12/08 12:22:04;;;;;;;0.57;0.57;;;6.70;99.90;;;;;;4934611;29;20580;-66
2023/12/08 12:24:30;;;;;;;0.30;0.30;;;6.70;99.90;;;;;;4934171;29;20412;-66
2023/12/08 12:26:56;;;;;;;0.30;0.30;;;6.70;99.90;;;;;;4934242;29;20213;-65
2023/12/08 12:29:23;;;;;;;0.80;0.80;;;6.70;99.90;;;;;;4934554;29;20650;-63
2023/12/08 12:31:48;;;;;;;0.30;0.30;;;6.70;99.90;;;;;;4934904;29;20496;-67
2023/12/08 12:34:15;;;;;;;0.30;0.30;;;6.80;99.90;;;;;;4935935;29;20678;-67
2023/12/08 12:36:41;;;;;;;0.30;0.30;;;6.80;99.90;;;;;;4936122;29;20201;-66
2023/12/08 12:39:07;;;;;;;0.50;0.50;;;6.80;99.90;;;;;;4936312;29;20696;-68
2023/12/08 12:41:33;;;;;;;0.30;0.30;;;6.80;99.90;;;;;;4936360;29;20196;-66
2023/12/08 12:44:01;;;;;;;0.30;0.30;;;6.80;99.90;;;;;;4935794;29;20632;-64
2023/12/08 12:46:27;;;;;;;0.40;0.40;;;6.90;99.90;;;;;;4935634;29;20468;-63
2023/12/08 12:48:53;;;;;;;0.30;0.30;;;6.90;99.90;;;;;;4936168;29;20635;-62
2023/12/08 12:51:35;;;;;;;0.30;0.30;;;6.90;99.90;;;;;;4936146;29;20196;-63
2023/12/08 12:54:03;;;;;;;0.30;0.30;;;6.80;99.90;;;;;;4935996;29;20177;-63
2023/12/08 12:56:29;;;;;;;0.30;0.30;;;6.90;99.90;;;;;;4936373;29;20189;-62
2023/12/08 12:59:05;;;;;;;0.30;0.30;;;6.90;99.90;;;;;;4935724;29;20205;-67
2023/12/08 13:01:31;;;;;;;0.40;0.40;;;6.90;99.90;;;;;;4935543;29;20177;-66
2023/12/08 13:03:58;;;;;;;0.30;0.30;;;7.00;99.90;;;;;;4935954;29;20640;-66
2023/12/08 13:06:29;;;;;;;0.40;0.40;;;7.00;99.90;;;;;;4935417;29;20216;-68
2023/12/08 13:08:56;;;;;;;0.32;0.32;;;7.10;99.90;;;;;;4935692;29;20175;-67
2023/12/08 13:11:21;;;;;;;0.30;0.30;;;7.10;99.90;;;;;;4935944;29;20164;-68
2023/12/08 13:13:47;;;;;;;0.83;0.83;;;7.00;99.90;;;;;;4936080;29;20576;-64
2023/12/08 13:16:12;;;;;;;0.30;0.30;;;7.00;99.90;;;;;;4934922;29;20197;-65
2023/12/08 13:18:49;;;;;;;0.40;0.40;;;7.00;99.90;;;;;;4920638;29;20614;-65
2023/12/08 13:21:15;;;;;;;0.40;0.40;;;7.10;99.90;;;;;;4939811;29;20173;-66
2023/12/08 13:23:45;;;;;;;0.30;0.30;;;7.10;99.90;;;;;;4939624;29;20177;-64
2023/12/08 13:26:11;;;;;;;0.30;0.30;;;7.20;99.90;;;;;;4938777;29;20207;-66
2023/12/08 13:28:37;;;;;;;0.30;0.30;;;7.20;99.90;;;;;;4939587;29;20170;-66
2023/12/08 13:31:03;;;;;;;0.47;0.47;;;7.20;99.90;;;;;;4939609;29;20588;-65
2023/12/08 13:33:29;;;;;;;0.33;0.33;;;7.20;99.90;;;;;;4939480;29;20200;-65
2023/12/08 13:35:55;;;;;;;0.30;0.30;;;7.20;99.90;;;;;;4939029;29;20284;-67
2023/12/08 13:38:22;;;;;;;0.30;0.30;;;7.20;99.90;;;;;;4938208;29;20186;-66
2023/12/08 13:40:49;;;;;;;0.40;0.40;;;7.20;99.90;;;;;;4939622;29;20268;-64
2023/12/08 13:43:14;;;;;;;0.68;0.68;;;7.30;99.90;;;;;;4939319;29;20184;-66
2023/12/08 13:45:40;;;;;;;0.30;0.30;;;7.30;99.90;;;;;;4938727;29;20206;-65
2023/12/08 13:48:06;;;;;;;0.30;0.30;;;7.20;99.90;;;;;;4939172;29;20229;-64
2023/12/08 13:50:32;;;;;;;0.30;0.30;;;7.20;99.90;;;;;;4939059;29;20184;-65
2023/12/08 13:52:58;;;;;;;0.30;0.30;;;7.30;99.90;;;;;;4938889;29;20409;-65
2023/12/08 13:55:24;;;;;;;0.30;0.30;;;7.40;99.90;;;;;;4938634;28;20197;-65
2023/12/08 13:57:50;;;;;;;0.50;0.47;;;7.30;99.90;;;;;;4937857;29;20237;-66
2023/12/08 14:00:16;;;;;;;0.30;0.30;;;7.40;99.90;;;;;;4938990;29;20249;-65
2023/12/08 14:02:42;;;;;;;0.30;0.30;;;7.30;99.90;;;;;;4938864;29;20496;-65
2023/12/08 14:05:10;;;;;;;1.05;1.05;;;7.30;99.90;;;;;;4938815;29;20443;-64
2023/12/08 14:07:36;;;;;;;0.30;0.30;;;7.30;99.90;;;;;;4937324;29;20236;-66
2023/12/08 14:10:02;;;;;;;0.45;0.45;;;7.30;99.90;;;;;;4938808;29;20170;-64
2023/12/08 14:12:28;;;;;;;0.43;0.43;;;7.40;99.90;;;;;;4938767;29;20184;-65
2023/12/08 14:14:53;;;;;;;0.40;0.40;;;7.40;99.90;;;;;;4938438;29;20256;-66
2023/12/08 14:17:19;;;;;;;0.30;0.30;;;7.40;99.90;;;;;;4938791;29;20678;-67
2023/12/08 14:19:45;;;;;;;0.30;0.30;;;7.40;99.90;;;;;;4937373;29;20177;-65
2023/12/08 14:22:10;;;;;;;0.30;0.30;;;7.50;99.90;;;;;;4938750;29;20257;-66
2023/12/08 14:24:36;;;;;;;0.30;0.30;;;7.50;99.90;;;;;;4938477;29;20193;-65
2023/12/08 14:27:01;;;;;;;0.30;0.30;;;7.50;99.90;;;;;;4938496;29;20744;-65
2023/12/08 14:29:28;;;;;;;0.30;0.30;;;7.50;99.90;;;;;;4938399;29;20233;-65
2023/12/08 14:31:54;;;;;;;0.30;0.30;;;7.60;99.90;;;;;;4938585;29;20599;-66
2023/12/08 14:34:19;;;;;;;0.30;0.30;;;7.60;99.90;;;;;;4938259;28;20169;-65
2023/12/08 14:36:45;;;;;;;0.30;0.30;;;7.60;99.90;;;;;;4938049;29;20549;-65
2023/12/08 14:39:11;;;;;;;0.30;0.30;;;7.70;99.90;;;;;;4939019;29;20178;-66
2023/12/08 14:41:37;;;;;;;0.40;0.40;;;7.70;99.90;;;;;;4938243;29;20650;-65
2023/12/08 14:44:02;;;;;;;0.30;0.20;;;7.70;99.90;;;;;;4937950;29;20181;-65
2023/12/08 14:46:28;;;;;;;0.40;0.40;;;7.70;99.90;;;;;;4937891;29;20201;-64
2023/12/08 14:48:53;;;;;;;0.30;0.30;;;7.70;99.90;;;;;;4938001;29;20170;-67
2023/12/08 14:51:20;;;;;;;0.30;0.30;;;7.70;99.90;;;;;;4938211;29;20177;-65
2023/12/08 14:53:46;;;;;;;0.30;0.30;;;7.70;99.90;;;;;;4938104;29;20177;-65
2023/12/08 14:56:11;;;;;;;0.30;0.30;;;7.80;99.90;;;;;;4937684;29;20205;-67
2023/12/08 14:58:37;;;;;;;0.37;0.37;;;7.70;99.90;;;;;;4938157;29;20177;-66
2023/12/08 15:01:03;;;;;;;0.40;0.40;;;7.80;99.90;;;;;;4938332;29;20193;-67
2023/12/08 15:03:29;;;;;;;0.30;0.30;;;7.70;99.90;;;;;;4937857;29;20181;-66
2023/12/08 15:05:54;;;;;;;0.30;0.30;;;7.70;99.90;;;;;;4937520;29;20212;-65
2023/12/08 15:08:20;;;;;;;1.17;1.07;;;7.70;99.90;;;;;;4937831;29;20220;-65
2023/12/08 15:10:46;;;;;;;0.30;0.30;;;7.70;99.90;;;;;;4937938;29;20170;-66
2023/12/08 15:13:11;;;;;;;0.30;0.30;;;7.70;99.90;;;;;;4937805;29;20524;-66
2023/12/08 15:15:37;;;;;;;0.30;0.30;;;7.70;99.90;;;;;;4937374;29;20429;-65
2023/12/08 15:18:03;;;;;;;0.30;0.30;;;7.70;99.90;;;;;;4937820;29;20575;-66
2023/12/08 15:20:35;;;;;;;0.40;0.40;;;7.70;99.90;;;;;;4937901;29;20205;-65
2023/12/08 15:23:01;;;;;;;0.70;0.47;;;7.70;99.90;;;;;;4937921;29;20640;-66
2023/12/08 15:25:27;;;;;;;0.30;0.30;;;7.70;99.90;;;;;;4937016;29;20204;-65
2023/12/08 15:27:52;;;;;;;0.40;0.40;;;7.70;99.90;;;;;;4937370;29;20170;-67
2023/12/08 15:30:18;;;;;;;0.30;0.30;;;7.70;99.90;;;;;;4937414;29;20176;-66
2023/12/08 15:32:44;;;;;;;0.57;0.57;;;7.60;99.90;;;;;;4937549;29;20448;-66
2023/12/08 15:35:10;;;;;;;0.30;0.20;;;7.50;99.90;;;;;;4937335;29;20197;-65
2023/12/08 15:37:35;;;;;;;0.53;0.50;;;7.50;99.90;;;;;;4937346;29;20200;-63
2023/12/08 15:40:01;;;;;;;0.30;0.30;;;7.60;99.90;;;;;;4937258;29;20217;-68
2023/12/08 15:42:26;;;;;;;0.30;0.30;;;7.50;99.90;;;;;;4936965;29;20173;-64
2023/12/08 15:44:52;;;;;;;0.30;0.30;;;7.60;99.90;;;;;;4937113;29;20184;-67
2023/12/08 15:47:18;;;;;;;0.33;0.33;;;7.50;99.90;;;;;;4936918;29;20213;-67
2023/12/08 15:49:43;;;;;;;0.40;0.40;;;7.50;99.90;;;;;;4936811;29;20224;-65
2023/12/08 15:52:09;;;;;;;0.30;0.30;;;7.50;99.90;;;;;;4936892;29;20184;-65
2023/12/08 15:54:35;;;;;;;0.60;0.60;;;7.50;99.90;;;;;;4936670;29;20244;-67
2023/12/08 15:57:02;;;;;;;0.30;0.30;;;7.50;99.90;;;;;;4936939;29;20185;-67
2023/12/08 15:59:27;;;;;;;0.30;0.30;;;7.50;99.90;;;;;;4935976;29;20414;-65
2023/12/08 16:01:59;;;;;;;0.40;0.40;;;7.40;99.90;;;;;;4936699;29;20778;-67
2023/12/08 16:04:27;;;;;;;0.40;0.40;;;7.40;99.90;;;;;;4936493;29;20185;-66
2023/12/08 16:06:53;;;;;;;0.43;0.43;;;7.40;99.90;;;;;;4936494;29;20217;-67
2023/12/08 16:09:19;;;;;;;0.55;0.55;;;7.40;99.90;;;;;;4936783;29;20173;-65
2023/12/08 16:11:45;;;;;;;0.30;0.30;;;7.40;99.90;;;;;;4936557;29;20188;-66
2023/12/08 16:14:11;;;;;;;0.50;0.50;;;7.30;99.90;;;;;;4936281;29;20173;-66
2023/12/08 16:16:36;;;;;;;0.40;0.40;;;7.20;99.90;;;;;;4936541;29;20448;-65
2023/12/08 16:19:02;;;;;;;0.37;0.37;;;7.20;99.90;;;;;;4936525;29;20173;-67
2023/12/08 16:21:29;;;;;;;0.37;0.37;;;7.30;99.90;;;;;;4936697;29;20244;-67
2023/12/08 16:23:56;;;;;;;0.40;0.40;;;7.20;99.90;;;;;;4936478;29;20449;-65
2023/12/08 16:26:21;;;;;;;0.65;0.65;;;7.30;99.90;;;;;;4936217;29;20201;-64
2023/12/08 16:28:47;;;;;;;0.30;0.30;;;7.30;99.90;;;;;;4936352;29;20178;-65
2023/12/08 16:31:13;;;;;;;0.30;0.30;;;7.30;99.90;;;;;;4935674;29;20350;-66
2023/12/08 16:33:39;;;;;;;0.60;0.60;;;7.30;99.90;;;;;;4935589;29;20636;-65
2023/12/08 16:36:05;;;;;;;0.30;0.30;;;7.30;99.90;;;;;;4942020;29;20215;-66
2023/12/08 16:38:33;;;;;;;0.30;0.30;;;7.20;99.90;;;;;;4947050;29;20962;-65
2023/12/08 16:40:59;;;;;;;0.40;0.40;;;7.20;99.90;;;;;;4954883;29;20510;-66
2023/12/08 16:43:27;;;;;;;0.67;0.47;;;7.20;99.90;;;;;;4955231;29;20260;-66
2023/12/08 16:45:52;;;;;;;0.38;0.38;;;7.30;99.90;;;;;;4954368;29;20205;-67
2023/12/08 16:48:18;;;;;;;0.50;0.50;;;7.30;99.90;;;;;;4954628;29;20184;-67
2023/12/08 16:50:44;;;;;;;0.30;0.30;;;7.30;99.90;;;;;;4938181;29;20174;-65
2023/12/08 16:53:10;;;;;;;0.30;0.30;;;7.30;99.90;;;;;;4936546;29;20220;-65
2023/12/08 16:55:36;;;;;;;0.47;0.47;;;7.30;99.90;;;;;;4917839;29;20207;-65
2023/12/08 16:58:02;;;;;;;1.60;1.50;;;7.20;99.90;;;;;;4935551;29;20178;-66
2023/12/08 17:00:28;;;;;;;0.30;0.30;;;7.20;99.90;;;;;;4935681;29;20911;-64
2023/12/08 17:02:54;;;;;;;0.70;0.70;;;7.10;99.90;;;;;;4935744;29;20296;-66
2023/12/08 17:05:20;;;;;;;0.30;0.30;;;7.10;99.90;;;;;;4935593;29;20189;-66
2023/12/08 17:07:47;;;;;;;0.55;0.55;;;7.10;99.90;;;;;;4936733;29;20213;-63
2023/12/08 17:10:12;;;;;;;0.30;0.30;;;7.10;99.90;;;;;;4936020;29;20180;-65
2023/12/08 17:12:38;;;;;;;0.30;0.30;;;7.10;99.90;;;;;;4935914;29;20691;-64
2023/12/08 17:15:05;;;;;;;0.30;0.30;;;7.10;99.90;;;;;;4935691;29;20175;-66
2023/12/08 17:17:30;;;;;;;0.40;0.40;;;7.10;99.90;;;;;;4936106;29;20607;-64
2023/12/08 17:19:56;;;;;;;6.03;1.27;;;7.10;99.90;;;;;;4952857;29;20204;-65
2023/12/08 17:22:22;;;;;;;0.30;0.30;;;7.10;99.90;;;;;;4954863;29;20468;-64
2023/12/08 17:24:48;;;;;;;0.30;0.30;;;7.10;99.90;;;;;;4952452;29;20180;-64
2023/12/08 17:27:14;;;;;;;0.30;0.30;;;7.10;99.90;;;;;;4954830;29;20270;-64
2023/12/08 17:29:39;;;;;;;0.30;0.30;;;7.10;99.90;;;;;;4954452;29;20424;-64
2023/12/08 17:32:05;;;;;;;0.40;0.40;;;7.10;99.90;;;;;;4954839;29;20571;-64
2023/12/08 17:34:31;;;;;;;0.30;0.30;;;7.10;99.90;;;;;;4952464;29;20169;-64
2023/12/08 17:36:57;;;;;;;0.30;0.30;;;7.00;99.90;;;;;;4918766;29;20288;-67
2023/12/08 17:39:23;;;;;;;0.63;0.63;;;7.10;99.90;;;;;;4936521;29;20184;-67
2023/12/08 17:41:49;;;;;;;0.30;0.30;;;7.00;99.90;;;;;;4918359;29;20178;-65
2023/12/08 17:44:14;;;;;;;0.30;0.30;;;7.00;99.90;;;;;;4935399;29;20265;-65
2023/12/08 17:46:40;;;;;;;0.30;0.30;;;7.00;99.90;;;;;;4947682;29;20299;-65
2023/12/08 17:49:06;;;;;;;0.88;0.88;;;7.00;99.90;;;;;;4937027;29;20220;-64
2023/12/08 17:51:31;;;;;;;0.30;0.30;;;7.00;99.90;;;;;;4954061;29;20200;-61
2023/12/08 17:53:57;;;;;;;0.30;0.30;;;7.00;99.90;;;;;;4953608;29;20184;-64
2023/12/08 17:56:23;;;;;;;0.30;0.30;;;7.00;99.90;;;;;;4954244;29;20685;-64
2023/12/08 17:58:48;;;;;;;0.40;0.40;;;7.00;99.90;;;;;;4954338;29;20181;-65